New Delhi, India

3:12 AM IST on July 25, 2016 (GMT +0530)
Indira Gandhi International | | Change Station

Elev 764 ft 28.57 °N, 77.12 °E | Updated 12 minutes ago

Mostly Cloudy
Mostly Cloudy
84 °F
Feels Like 98 °F
N
0
Wind Variable Wind from North

Today
High -- | Low -- °F
--% Chance of Precip.
Yesterday
High -- | Low -- °F
Precip. -- in
Pressure 29.62 in
Visibility 1.4 miles
Clouds Scattered Clouds 3000 ft
Mostly Cloudy 10000 ft
Heat Index 98 °F
Dew Point 81 °F
Humidity 89%
Rainfall 0.00 in
Snow Depth Not available.
5:39 AM 7:16 PM
Waning Gibbous, 73% visible
METAR VIDP 242130Z 00000KT 2200 BR SCT030 BKN100 29/27 Q1003 NOSIG
Pressure 29.62 in
Visibility 1.4 miles
Clouds Scattered Clouds 3000 ft
Mostly Cloudy 10000 ft
Heat Index 98 °F
Dew Point 81 °F
Humidity 89%
Rainfall 0.00 in
Snow Depth Not available.
5:39 AM 7:16 PM
Waning Gibbous, 73% visible
METAR VIDP 242130Z 00000KT 2200 BR SCT030 BKN100 29/27 Q1003 NOSIG

10-Day Weather Forecast

No radar image for this location.
×

Almanac

Astronomy

Jul. 25, 2016 Rise Set
Actual Time
Civil Twilight
Nautical Twilight
Astronomical Twilight
Moon
Length of Visible Light
Length of Day
Tomorrow will be .
, % of the Moon is Illuminated

Today's Extremes

Country Highs Country Lows

Community

WunderPhotos

Upload Photos

1,927,195 photos uploaded!

WunderBlog® & News

Nearby

Air Quality

  Air Quality AQ Index Pollutant
Not available.

Snow Depth

Station Depth Elevation

Earthquake Activity

City Distance Mag. Time & Date
Minimum magnitude displayed is 2.5.

Coastal Water Temperatures

Place Temperature

Stations

Nearby Weather Stations

Station Location Temp. Windchill Dew Point Humidity Wind Precip. Elev Updated Type